createdAt,value
2023-04-19T00:02:37.216Z,5.68
2023-04-19T00:06:42.106Z,5.18
2023-04-19T00:10:44.908Z,5.20
2023-04-19T00:14:47.688Z,4.90
2023-04-19T00:18:50.650Z,5.22
2023-04-19T00:22:55.207Z,5.63
2023-04-19T00:26:58.979Z,5.28
2023-04-19T00:31:01.912Z,5.43
2023-04-19T00:35:07.589Z,5.38
2023-04-19T00:39:11.727Z,5.80
2023-04-19T00:43:19.008Z,4.95
2023-04-19T00:47:21.867Z,5.38
2023-04-19T00:51:24.874Z,5.40
2023-04-19T00:55:29.094Z,5.63
2023-04-19T00:59:32.224Z,5.68
2023-04-19T01:03:36.454Z,4.97
2023-04-19T01:07:39.549Z,5.50
2023-04-19T01:11:43.771Z,5.03
2023-04-19T01:15:46.665Z,5.18
2023-04-19T01:19:49.429Z,4.97
2023-04-19T01:23:53.605Z,5.18
2023-04-19T01:27:58.551Z,5.03
2023-04-19T01:32:01.488Z,5.15
2023-04-19T01:36:04.912Z,5.15
2023-04-19T01:40:09.989Z,4.88
2023-04-19T01:44:13.507Z,5.32
2023-04-19T01:48:16.456Z,5.38
2023-04-19T01:52:19.374Z,5.53
2023-04-19T01:56:26.120Z,5.85
2023-04-19T02:00:28.957Z,5.32
2023-04-19T02:04:31.751Z,5.60
2023-04-19T02:08:34.500Z,5.80
2023-04-19T02:12:38.883Z,6.05
2023-04-19T02:16:41.822Z,5.15
2023-04-19T02:20:44.685Z,5.53
2023-04-19T02:24:48.367Z,5.68
2023-04-19T02:28:53.625Z,5.88
2023-04-19T02:32:58.607Z,5.85
2023-04-19T02:37:01.596Z,6.10
2023-04-19T02:41:06.125Z,5.88
2023-04-19T02:45:11.131Z,5.93
2023-04-19T02:49:13.851Z,6.15
2023-04-19T02:53:16.807Z,7.00
2023-04-19T02:57:19.984Z,6.13
2023-04-19T03:01:24.982Z,6.10
2023-04-19T03:05:27.758Z,6.82
2023-04-19T03:09:30.552Z,6.63
2023-04-19T03:13:33.986Z,6.43
2023-04-19T03:17:38.315Z,6.47
2023-04-19T03:21:42.452Z,6.00
2023-04-19T03:25:45.438Z,6.00
2023-04-19T03:30:13.010Z,6.07
2023-04-19T03:34:20.779Z,5.93
2023-04-19T03:38:25.175Z,5.07
2023-04-19T03:42:29.203Z,5.60
2023-04-19T03:46:38.456Z,5.85
2023-04-19T03:50:42.961Z,5.50
2023-04-19T03:54:48.940Z,5.78
2023-04-19T03:59:05.640Z,5.47
2023-04-19T04:03:11.077Z,5.88
2023-04-19T04:07:16.186Z,5.57
2023-04-19T04:11:19.092Z,5.70
2023-04-19T04:15:24.578Z,5.80
2023-04-19T04:19:29.549Z,5.22
2023-04-19T04:23:33.927Z,5.53
2023-04-19T04:27:38.272Z,6.55
2023-04-19T04:31:44.135Z,5.40
2023-04-19T04:35:47.188Z,4.43
2023-04-19T04:39:58.716Z,5.03
2023-04-19T04:44:12.649Z,4.60
2023-04-19T04:48:26.109Z,4.50
2023-04-19T04:52:29.836Z,4.25
2023-04-19T04:56:44.542Z,4.18
2023-04-19T05:00:49.088Z,4.40
2023-04-19T05:04:52.133Z,4.30
2023-04-19T05:08:59.344Z,4.25
2023-04-19T05:13:13.681Z,4.43
2023-04-19T05:17:17.167Z,4.70
2023-04-19T05:21:21.821Z,4.53
2023-04-19T05:25:24.975Z,4.20
2023-04-19T05:29:30.178Z,3.90
2023-04-19T05:33:33.383Z,4.18
2023-04-19T05:37:37.517Z,3.90
2023-04-19T05:41:41.020Z,4.50
2023-04-19T05:45:45.281Z,4.60
2023-04-19T05:49:48.305Z,4.20
2023-04-19T05:53:57.389Z,4.20
2023-04-19T05:58:01.658Z,4.07
2023-04-19T06:02:08.424Z,3.75
2023-04-19T06:12:25.921Z,3.88
2023-04-19T06:17:20.176Z,3.97
2023-04-19T06:27:27.010Z,3.83
2023-04-19T06:31:58.321Z,3.17
2023-04-19T06:53:04.971Z,3.38
2023-04-19T06:57:27.995Z,2.90
2023-04-19T07:18:15.541Z,3.03
2023-04-19T07:44:13.058Z,3.10
2023-04-19T07:48:29.929Z,3.33
2023-04-19T07:57:16.251Z,3.03
2023-04-19T08:01:42.013Z,3.38
2023-04-19T08:06:06.834Z,2.80
2023-04-19T08:10:25.136Z,3.15
2023-04-19T08:15:36.190Z,3.30
2023-04-19T08:20:12.586Z,3.88
2023-04-19T08:25:09.959Z,2.80
2023-04-19T08:29:32.138Z,2.58
2023-04-19T08:34:18.524Z,2.63
2023-04-19T08:39:04.322Z,2.70
2023-04-19T08:48:14.059Z,2.50
2023-04-19T08:52:51.778Z,2.50
2023-04-19T08:57:22.296Z,2.60
2023-04-19T09:02:28.276Z,2.53
2023-04-19T09:06:54.478Z,2.58
2023-04-19T09:11:32.654Z,2.92
2023-04-19T09:15:57.793Z,2.50
2023-04-19T09:20:20.249Z,2.60
2023-04-19T09:29:32.188Z,2.90
2023-04-19T09:33:41.658Z,2.78
2023-04-19T09:41:54.147Z,2.95
2023-04-19T09:45:59.459Z,2.95
2023-04-19T09:50:21.269Z,3.05
2023-04-19T09:54:27.732Z,2.92
2023-04-19T10:02:54.495Z,2.95
2023-04-19T10:07:25.268Z,2.78
2023-04-19T10:11:28.539Z,3.03
2023-04-19T10:15:49.371Z,2.80
2023-04-19T10:20:03.022Z,2.60
2023-04-19T10:24:08.311Z,2.75
2023-04-19T10:28:14.274Z,3.10
2023-04-19T10:32:17.596Z,3.08
2023-04-19T10:36:26.520Z,2.97
2023-04-19T10:41:04.224Z,2.42
2023-04-19T10:45:56.024Z,2.67
2023-04-19T10:50:50.664Z,2.92
2023-04-19T10:55:50.903Z,2.40
2023-04-19T11:00:22.635Z,2.92
2023-04-19T11:05:11.674Z,2.90
2023-04-19T11:09:23.224Z,3.28
2023-04-19T11:13:26.559Z,2.90
2023-04-19T11:17:33.040Z,3.25
2023-04-19T11:21:41.852Z,2.80
2023-04-19T11:25:50.073Z,3.00
2023-04-19T11:29:54.119Z,3.35
2023-04-19T11:34:00.094Z,3.92
2023-04-19T11:38:05.041Z,3.65
2023-04-19T11:42:18.453Z,3.05
2023-04-19T11:46:22.709Z,3.22
2023-04-19T11:50:36.188Z,3.30
2023-04-19T11:54:42.764Z,2.75
2023-04-19T11:58:48.708Z,2.88
2023-04-19T12:02:57.668Z,2.97
2023-04-19T12:07:03.821Z,2.85
2023-04-19T12:11:07.512Z,3.10
2023-04-19T12:15:11.019Z,2.60
2023-04-19T12:19:15.300Z,2.60
2023-04-19T12:23:21.218Z,2.67
2023-04-19T12:27:25.666Z,2.80
2023-04-19T12:31:28.699Z,2.53
2023-04-19T12:35:31.800Z,3.17
2023-04-19T12:39:35.872Z,2.70
2023-04-19T12:43:38.668Z,4.63
2023-04-19T12:47:41.722Z,2.60
2023-04-19T12:51:44.503Z,2.42
2023-04-19T12:55:49.708Z,3.00
2023-04-19T12:59:52.495Z,2.90
2023-04-19T13:03:58.697Z,3.00
2023-04-19T13:08:02.108Z,2.83
2023-04-19T13:12:07.168Z,3.33
2023-04-19T13:16:10.990Z,2.97
2023-04-19T13:20:14.231Z,2.50
2023-04-19T13:24:17.347Z,2.80
2023-04-19T13:28:21.616Z,2.72
2023-04-19T13:32:24.778Z,2.45
2023-04-19T13:36:28.211Z,2.80
2023-04-19T13:40:30.965Z,2.67
2023-04-19T13:44:35.623Z,2.25
2023-04-19T13:48:38.384Z,2.38
2023-04-19T13:52:41.162Z,2.58
2023-04-19T13:56:43.967Z,2.50
2023-04-19T14:00:48.848Z,2.50
2023-04-19T14:04:51.632Z,2.20
2023-04-19T14:08:54.384Z,3.97
2023-04-19T14:12:57.119Z,2.60
2023-04-19T14:17:01.223Z,2.20
2023-04-19T14:21:04.310Z,2.22
2023-04-19T14:25:07.673Z,2.38
2023-04-19T14:29:10.601Z,2.58
2023-04-19T14:33:14.760Z,2.72
2023-04-19T14:37:17.634Z,2.85
2023-04-19T14:41:20.497Z,2.47
2023-04-19T14:45:23.224Z,2.53
2023-04-19T14:49:27.289Z,2.75
2023-04-19T14:53:31.365Z,2.70
2023-04-19T14:57:35.056Z,3.10
2023-04-19T15:01:37.844Z,2.97
2023-04-19T15:05:42.213Z,2.53
2023-04-19T15:09:45.166Z,2.35
2023-04-19T15:13:47.884Z,2.47
2023-04-19T15:17:51.072Z,3.25
2023-04-19T15:21:55.360Z,2.95
2023-04-19T15:25:58.086Z,3.17
2023-04-19T15:30:00.863Z,2.78
2023-04-19T15:34:04.823Z,2.90
2023-04-19T15:38:08.860Z,2.95
2023-04-19T15:42:11.562Z,2.50
2023-04-19T15:46:14.824Z,2.90
2023-04-19T15:50:17.530Z,2.50
2023-04-19T15:54:22.951Z,2.78
2023-04-19T15:58:25.833Z,3.10
2023-04-19T16:02:28.657Z,3.50
2023-04-19T16:06:31.859Z,2.83
2023-04-19T16:10:37.535Z,2.80
2023-04-19T16:14:40.387Z,2.90
2023-04-19T16:18:43.250Z,3.28
2023-04-19T16:22:46.125Z,3.28
2023-04-19T16:26:50.282Z,2.92
2023-04-19T16:30:53.138Z,3.40
2023-04-19T16:34:55.858Z,3.22
2023-04-19T16:38:58.597Z,3.08
2023-04-19T16:43:03.063Z,3.67
2023-04-19T16:47:05.909Z,3.67
2023-04-19T16:57:10.111Z,4.00
2023-04-19T17:01:14.359Z,3.63
2023-04-19T17:05:17.208Z,4.03
2023-04-19T17:09:19.982Z,3.88
2023-04-19T17:13:22.681Z,4.35
2023-04-19T17:17:26.903Z,3.40
2023-04-19T17:21:29.798Z,3.40
2023-04-19T17:25:32.527Z,4.18
2023-04-19T17:29:35.703Z,3.92
2023-04-19T17:33:41.102Z,3.78
2023-04-19T17:37:44.499Z,4.15
2023-04-19T17:41:47.294Z,3.88
2023-04-19T17:45:51.133Z,3.78
2023-04-19T17:50:06.213Z,4.03
2023-04-19T17:54:11.716Z,4.45
2023-04-19T17:58:14.566Z,4.57
2023-04-19T18:02:20.882Z,3.70
2023-04-19T18:06:26.620Z,3.95
2023-04-19T18:10:29.797Z,3.67
2023-04-19T18:14:33.217Z,4.10
2023-04-19T18:18:35.981Z,4.10
2023-04-19T18:22:40.031Z,3.80
2023-04-19T18:26:44.357Z,4.07
2023-04-19T18:30:47.122Z,3.15
2023-04-19T18:34:50.167Z,3.72
2023-04-19T18:38:54.408Z,3.47
2023-04-19T18:42:58.094Z,4.05
2023-04-19T18:47:01.236Z,4.22
2023-04-19T18:51:04.025Z,5.28
2023-04-19T18:55:09.155Z,4.10
2023-04-19T18:59:12.135Z,3.88
2023-04-19T19:03:38.179Z,3.40
2023-04-19T19:07:39.601Z,3.55
2023-04-19T19:11:56.124Z,3.53
2023-04-19T19:15:59.643Z,3.38
2023-04-19T19:20:02.683Z,3.47
2023-04-19T19:24:07.317Z,3.08
2023-04-19T19:28:11.493Z,3.05
2023-04-19T19:32:14.256Z,2.83
2023-04-19T19:36:17.923Z,3.13
2023-04-19T19:40:22.913Z,3.25
2023-04-19T19:44:27.301Z,2.85
2023-04-19T19:48:30.618Z,3.38
2023-04-19T19:52:34.160Z,3.35
2023-04-19T19:56:39.785Z,3.05
2023-04-19T20:00:55.582Z,3.30
2023-04-19T20:04:58.820Z,3.58
2023-04-19T20:09:01.809Z,3.10
2023-04-19T20:13:07.914Z,3.10
2023-04-19T20:17:12.217Z,3.72
2023-04-19T20:21:15.280Z,3.30
2023-04-19T20:25:18.940Z,3.58
2023-04-19T20:29:21.844Z,3.40
2023-04-19T20:33:26.097Z,3.30
2023-04-19T20:37:30.603Z,4.18
2023-04-19T20:41:33.468Z,3.30
2023-04-19T20:45:36.850Z,3.42
2023-04-19T20:49:46.897Z,3.33
2023-04-19T20:53:49.618Z,3.60
2023-04-19T20:57:52.528Z,3.60
2023-04-19T21:01:55.338Z,3.35
2023-04-19T21:06:00.849Z,3.80
2023-04-19T21:10:03.578Z,3.85
2023-04-19T21:14:06.531Z,4.07
2023-04-19T21:18:09.380Z,4.00
2023-04-19T21:22:13.620Z,4.22
2023-04-19T21:26:17.508Z,3.90
2023-04-19T21:30:21.925Z,3.88
2023-04-19T21:34:25.910Z,4.45
2023-04-19T21:38:29.953Z,3.97
2023-04-19T21:42:32.695Z,4.05
2023-04-19T21:46:35.800Z,4.07
2023-04-19T21:50:38.697Z,4.25
2023-04-19T21:54:43.028Z,4.32
2023-04-19T21:58:45.952Z,4.50
2023-04-19T22:02:48.901Z,4.50
2023-04-19T22:06:51.833Z,4.80
2023-04-19T22:10:57.459Z,4.57
2023-04-19T22:15:02.852Z,5.03
2023-04-19T22:19:06.175Z,5.25
2023-04-19T22:23:09.890Z,4.72
2023-04-19T22:27:16.832Z,5.20
2023-04-19T22:31:21.655Z,4.95
2023-04-19T22:35:24.449Z,5.00
2023-04-19T22:39:28.287Z,4.88
2023-04-19T22:43:33.065Z,5.47
2023-04-19T22:47:37.350Z,5.40
2023-04-19T22:51:42.465Z,5.05
2023-04-19T22:55:46.471Z,5.20
2023-04-19T22:59:50.904Z,5.22
2023-04-19T23:03:53.703Z,4.78
2023-04-19T23:07:57.397Z,5.40
2023-04-19T23:12:00.495Z,4.47
2023-04-19T23:16:04.987Z,4.72
2023-04-19T23:20:10.793Z,5.22
2023-04-19T23:24:13.531Z,4.72
2023-04-19T23:28:16.731Z,4.47
2023-04-19T23:32:20.830Z,4.70
2023-04-19T23:36:23.701Z,4.80
2023-04-19T23:40:26.451Z,4.50
2023-04-19T23:44:29.749Z,5.63
2023-04-19T23:48:33.805Z,5.20
2023-04-19T23:52:37.691Z,5.20
2023-04-19T23:56:40.430Z,4.90
